Time;durP1;ratioP1;P1;durP2;ratioP2;P2;SDS_P1;SDS_P2;PMS_P1;PMS_P2;Temp;Humidity;BMP_temperature;BMP_pressure;BME280_temperature;BME280_humidity;BME280_pressure;Samples;Min_cycle;Max_cycle;Signal;HPM_P1;HPM_P2
2023/07/16 00:00:09;;;;;;;9.70;5.00;;;20.30;99.90;;;;;;5040945;28;20186;-60
2023/07/16 00:02:37;;;;;;;7.70;4.70;;;20.20;99.90;;;;;;5045727;28;20663;-60
2023/07/16 00:05:03;;;;;;;4.00;3.70;;;20.20;99.90;;;;;;5036634;28;20943;-60
2023/07/16 00:07:29;;;;;;;8.63;3.93;;;20.20;99.90;;;;;;5045186;28;20491;-60
2023/07/16 00:09:54;;;;;;;4.43;2.97;;;20.10;99.90;;;;;;5042356;28;20461;-60
2023/07/16 00:12:20;;;;;;;2.63;2.43;;;20.10;99.90;;;;;;5039557;28;20180;-60
2023/07/16 00:14:45;;;;;;;5.20;2.63;;;20.00;99.90;;;;;;5040926;28;20200;-61
2023/07/16 00:17:11;;;;;;;3.03;2.73;;;19.90;99.90;;;;;;5041865;28;20189;-61
2023/07/16 00:19:36;;;;;;;2.43;2.20;;;19.80;99.90;;;;;;5041167;28;20187;-60
2023/07/16 00:22:02;;;;;;;1.80;1.53;;;19.80;99.90;;;;;;5035571;28;20175;-60
2023/07/16 00:24:28;;;;;;;1.97;1.87;;;19.80;99.90;;;;;;5039519;28;20199;-59
2023/07/16 00:26:53;;;;;;;8.47;2.67;;;19.70;99.90;;;;;;5035127;28;20225;-61
2023/07/16 00:29:19;;;;;;;3.50;1.90;;;19.70;99.90;;;;;;5044000;28;20179;-60
2023/07/16 00:31:44;;;;;;;2.63;2.10;;;19.70;99.90;;;;;;5042581;28;20272;-59
2023/07/16 00:34:12;;;;;;;2.13;1.80;;;19.70;99.90;;;;;;5038134;28;20183;-59
2023/07/16 00:36:38;;;;;;;1.73;1.20;;;19.60;99.90;;;;;;5041510;28;20186;-60
2023/07/16 00:39:03;;;;;;;2.23;1.70;;;19.50;99.90;;;;;;5039062;28;20807;-61
2023/07/16 00:41:29;;;;;;;1.33;1.23;;;19.40;99.90;;;;;;5038326;28;20207;-60
2023/07/16 00:43:54;;;;;;;2.70;1.80;;;19.40;99.90;;;;;;5035573;28;20206;-60
2023/07/16 00:46:20;;;;;;;1.57;1.40;;;19.30;99.90;;;;;;5042185;28;20187;-60
2023/07/16 00:48:46;;;;;;;1.60;1.47;;;19.20;99.90;;;;;;5041404;28;20236;-60
2023/07/16 00:51:13;;;;;;;1.63;1.53;;;19.30;99.90;;;;;;5043449;28;20182;-60
2023/07/16 00:53:41;;;;;;;2.53;1.60;;;19.20;99.90;;;;;;5040871;28;20195;-61
2023/07/16 00:56:08;;;;;;;2.00;1.57;;;19.20;99.90;;;;;;5037498;28;20450;-60
2023/07/16 00:58:34;;;;;;;3.73;1.50;;;19.10;99.90;;;;;;5037627;28;20436;-58
2023/07/16 01:01:00;;;;;;;2.60;1.50;;;19.10;99.90;;;;;;5038535;28;20413;-60
2023/07/16 01:03:26;;;;;;;2.40;1.50;;;19.10;99.90;;;;;;5043651;28;20683;-61
2023/07/16 01:06:09;;;;;;;1.60;1.50;;;19.10;99.90;;;;;;5035282;28;20213;-59
2023/07/16 01:08:40;;;;;;;2.10;1.33;;;19.10;99.90;;;;;;5037848;28;20553;-60
2023/07/16 01:11:07;;;;;;;1.80;1.60;;;19.10;99.90;;;;;;5036506;28;20421;-60
2023/07/16 01:13:33;;;;;;;4.70;1.63;;;19.10;99.90;;;;;;5036623;28;20433;-59
2023/07/16 01:15:59;;;;;;;1.43;1.33;;;19.10;99.90;;;;;;5040309;28;20437;-61
2023/07/16 01:18:24;;;;;;;1.53;1.43;;;19.00;99.90;;;;;;5041841;28;20974;-60
2023/07/16 01:20:50;;;;;;;6.90;1.73;;;19.00;99.90;;;;;;5035321;28;20171;-60
2023/07/16 01:23:31;;;;;;;2.57;1.50;;;19.00;99.90;;;;;;5040539;28;20171;-60
2023/07/16 01:26:18;;;;;;;4.03;2.00;;;19.00;99.90;;;;;;5036779;28;20343;-60
2023/07/16 01:29:14;;;;;;;2.30;1.50;;;19.00;99.90;;;;;;5038788;28;20429;-61
2023/07/16 01:31:41;;;;;;;2.00;1.73;;;19.00;99.90;;;;;;5036033;28;20422;-60
2023/07/16 01:34:08;;;;;;;2.17;1.80;;;19.00;99.90;;;;;;5045594;28;20504;-60
2023/07/16 01:36:34;;;;;;;4.40;1.73;;;19.00;99.90;;;;;;5043198;28;20437;-60
2023/07/16 01:39:01;;;;;;;1.73;1.40;;;18.90;99.90;;;;;;5039465;28;21091;-60
2023/07/16 01:41:26;;;;;;;3.17;1.87;;;18.90;99.90;;;;;;5036607;28;21017;-61
2023/07/16 01:43:52;;;;;;;1.30;1.20;;;18.80;99.90;;;;;;5039446;28;20438;-60
2023/07/16 01:46:18;;;;;;;3.43;1.87;;;18.80;99.90;;;;;;5042573;28;20716;-59
2023/07/16 01:48:44;;;;;;;2.23;1.97;;;18.80;99.90;;;;;;5034535;28;20180;-60
2023/07/16 01:51:11;;;;;;;4.30;1.77;;;18.80;99.90;;;;;;5040198;28;20422;-60
2023/07/16 01:53:36;;;;;;;5.80;1.50;;;18.80;99.90;;;;;;5041107;28;20803;-60
2023/07/16 01:56:02;;;;;;;4.70;1.80;;;18.80;99.90;;;;;;5037645;28;20442;-60
2023/07/16 01:58:28;;;;;;;1.90;1.70;;;18.80;99.90;;;;;;5034040;28;20646;-59
2023/07/16 02:00:54;;;;;;;4.33;1.80;;;18.80;99.90;;;;;;5041998;28;20179;-61
2023/07/16 02:03:19;;;;;;;3.87;1.60;;;18.80;99.90;;;;;;5043379;28;20805;-61
2023/07/16 02:05:45;;;;;;;3.30;1.93;;;18.80;99.90;;;;;;5033848;28;20233;-61
2023/07/16 02:08:10;;;;;;;3.13;1.70;;;18.80;99.90;;;;;;5035401;28;20628;-61
2023/07/16 02:10:36;;;;;;;2.10;1.73;;;18.80;99.90;;;;;;5034294;28;20262;-61
2023/07/16 02:13:02;;;;;;;1.67;1.57;;;18.80;99.90;;;;;;5026573;28;20624;-60
2023/07/16 02:15:27;;;;;;;2.47;1.93;;;18.80;99.90;;;;;;5038599;28;20199;-58
2023/07/16 02:17:53;;;;;;;5.40;2.00;;;18.70;99.90;;;;;;5034752;28;20663;-61
2023/07/16 02:20:18;;;;;;;1.90;1.50;;;18.70;99.90;;;;;;5040168;28;20236;-60
2023/07/16 02:22:44;;;;;;;3.00;2.20;;;18.70;99.90;;;;;;5038588;28;20175;-61
2023/07/16 02:25:10;;;;;;;2.17;1.90;;;18.70;99.90;;;;;;5041846;28;20291;-61
2023/07/16 02:27:35;;;;;;;2.80;2.07;;;18.60;99.90;;;;;;5034966;28;20582;-60
2023/07/16 02:30:01;;;;;;;4.13;2.00;;;18.60;99.90;;;;;;5031801;28;20199;-60
2023/07/16 02:32:26;;;;;;;1.77;1.67;;;18.50;99.90;;;;;;5033931;28;20563;-60
2023/07/16 02:34:52;;;;;;;4.10;1.70;;;18.50;99.90;;;;;;5036800;28;20211;-61
2023/07/16 02:37:17;;;;;;;1.80;1.70;;;18.40;99.90;;;;;;5037104;28;20176;-60
2023/07/16 02:39:46;;;;;;;2.53;1.93;;;18.40;99.90;;;;;;5037908;28;20191;-60
2023/07/16 02:42:11;;;;;;;3.20;1.70;;;18.30;99.90;;;;;;5035028;28;20199;-60
2023/07/16 02:44:44;;;;;;;4.83;1.67;;;18.30;99.90;;;;;;5036505;28;20493;-61
2023/07/16 02:47:11;;;;;;;3.40;1.80;;;18.30;99.90;;;;;;5039394;28;20549;-60
2023/07/16 02:49:37;;;;;;;1.90;1.80;;;18.30;99.90;;;;;;5039917;28;20456;-60
2023/07/16 02:52:03;;;;;;;2.00;1.80;;;18.30;99.90;;;;;;5036261;28;20785;-60
2023/07/16 02:54:29;;;;;;;2.13;2.00;;;18.20;99.90;;;;;;5037570;28;20503;-61
2023/07/16 02:56:54;;;;;;;2.20;1.90;;;18.20;99.90;;;;;;5038459;28;20183;-61
2023/07/16 02:59:20;;;;;;;4.47;1.80;;;18.20;99.90;;;;;;5042424;28;20218;-60
2023/07/16 03:01:45;;;;;;;21.70;2.60;;;18.20;99.90;;;;;;5040385;28;20183;-61
2023/07/16 03:04:11;;;;;;;3.20;1.63;;;18.20;99.90;;;;;;5037390;28;20626;-60
2023/07/16 03:06:36;;;;;;;1.63;1.53;;;18.20;99.90;;;;;;5041111;28;20186;-58
2023/07/16 03:09:02;;;;;;;2.40;2.10;;;18.10;99.90;;;;;;5035871;28;20198;-60
2023/07/16 03:11:28;;;;;;;2.43;2.23;;;18.10;99.90;;;;;;5040352;28;20177;-60
2023/07/16 03:13:54;;;;;;;3.17;1.70;;;18.00;99.90;;;;;;5040280;28;20172;-61
2023/07/16 03:16:19;;;;;;;5.10;2.27;;;17.90;99.90;;;;;;5044225;28;20325;-61
2023/07/16 03:18:45;;;;;;;4.73;1.77;;;17.90;99.90;;;;;;5037956;28;20698;-60
2023/07/16 03:21:11;;;;;;;2.20;1.70;;;17.80;99.90;;;;;;5039866;28;20179;-60
2023/07/16 03:23:37;;;;;;;5.13;2.00;;;17.80;99.90;;;;;;5037407;28;20426;-61
2023/07/16 03:26:02;;;;;;;2.47;1.70;;;17.80;99.90;;;;;;5041166;28;20475;-61
2023/07/16 03:28:28;;;;;;;4.53;1.83;;;17.80;99.90;;;;;;5038774;28;20194;-60
2023/07/16 03:30:54;;;;;;;7.83;3.10;;;17.70;99.90;;;;;;5035891;28;20682;-61
2023/07/16 03:33:19;;;;;;;3.80;2.33;;;17.70;99.90;;;;;;5045743;28;20183;-61
2023/07/16 03:35:46;;;;;;;9.57;2.30;;;17.60;99.90;;;;;;5042851;28;20202;-61
2023/07/16 03:38:13;;;;;;;5.57;1.87;;;17.60;99.90;;;;;;5033057;28;20809;-61
2023/07/16 03:40:40;;;;;;;2.53;1.90;;;17.50;99.90;;;;;;5042640;28;20434;-60
2023/07/16 03:43:05;;;;;;;3.73;2.17;;;17.50;99.90;;;;;;5041480;28;20494;-60
2023/07/16 03:45:31;;;;;;;4.83;1.97;;;17.50;99.90;;;;;;5039065;28;20465;-61
2023/07/16 03:47:57;;;;;;;4.47;2.27;;;17.50;99.90;;;;;;5044110;28;20171;-61
2023/07/16 03:50:22;;;;;;;3.47;2.60;;;17.40;99.90;;;;;;5045603;28;20206;-61
2023/07/16 03:52:48;;;;;;;3.93;2.13;;;17.40;99.90;;;;;;5039438;28;20172;-60
2023/07/16 03:55:13;;;;;;;4.57;2.80;;;17.40;99.90;;;;;;5039793;28;20227;-61
2023/07/16 03:57:40;;;;;;;4.47;2.33;;;17.40;99.90;;;;;;5034192;28;20180;-60
2023/07/16 04:00:09;;;;;;;4.90;2.10;;;17.30;99.90;;;;;;5036324;28;20183;-61
2023/07/16 04:02:35;;;;;;;3.60;1.83;;;17.30;99.90;;;;;;5037329;28;20441;-61
2023/07/16 04:05:01;;;;;;;3.50;2.33;;;17.30;99.90;;;;;;5040629;28;20469;-60
2023/07/16 04:07:27;;;;;;;3.90;2.30;;;17.30;99.90;;;;;;5042518;28;20453;-62
2023/07/16 04:09:52;;;;;;;3.47;2.30;;;17.30;99.90;;;;;;5036767;28;20429;-60
2023/07/16 04:12:18;;;;;;;3.10;1.87;;;17.20;99.90;;;;;;5039893;28;20179;-61
2023/07/16 04:14:43;;;;;;;3.97;2.20;;;17.20;99.90;;;;;;5038912;28;20568;-61
2023/07/16 04:17:09;;;;;;;2.90;2.00;;;17.20;99.90;;;;;;5041202;28;20236;-60
2023/07/16 04:19:35;;;;;;;5.57;2.20;;;17.20;99.90;;;;;;5042800;28;20183;-60
2023/07/16 04:22:01;;;;;;;2.27;2.07;;;17.10;99.90;;;;;;5039170;28;20187;-60
2023/07/16 04:24:27;;;;;;;3.00;2.60;;;17.10;99.90;;;;;;5043523;28;20335;-60
2023/07/16 04:26:53;;;;;;;5.57;2.43;;;17.10;99.90;;;;;;5031735;28;20263;-61
2023/07/16 04:29:19;;;;;;;2.83;2.03;;;17.00;99.90;;;;;;5043140;28;20484;-61
2023/07/16 04:31:45;;;;;;;6.83;2.23;;;17.00;99.90;;;;;;5036795;28;20427;-60
2023/07/16 04:34:10;;;;;;;2.07;1.90;;;17.00;99.90;;;;;;5042183;28;20575;-61
2023/07/16 04:36:36;;;;;;;3.03;1.90;;;16.90;99.90;;;;;;5039847;28;20175;-61
2023/07/16 04:39:02;;;;;;;2.53;2.03;;;17.00;99.90;;;;;;5034941;28;20839;-61
2023/07/16 04:41:28;;;;;;;2.23;2.03;;;17.00;99.90;;;;;;5040698;28;21957;-61
2023/07/16 04:43:53;;;;;;;2.40;1.90;;;17.00;99.90;;;;;;5041212;28;20523;-60
2023/07/16 04:46:19;;;;;;;3.23;1.93;;;17.00;99.90;;;;;;5040653;28;20605;-60
2023/07/16 04:48:44;;;;;;;3.03;1.90;;;17.00;99.90;;;;;;5039114;28;20191;-61
2023/07/16 04:51:10;;;;;;;5.03;1.90;;;16.90;99.90;;;;;;5040901;28;20200;-61
2023/07/16 04:53:36;;;;;;;3.23;1.90;;;16.90;99.90;;;;;;5043210;28;20182;-62
2023/07/16 04:56:01;;;;;;;2.97;2.20;;;16.80;99.90;;;;;;5034289;28;20206;-60
2023/07/16 04:58:27;;;;;;;3.20;1.90;;;16.80;99.90;;;;;;5040973;28;20186;-60
2023/07/16 05:00:52;;;;;;;2.47;2.17;;;16.80;99.90;;;;;;5040806;28;20190;-61
2023/07/16 05:03:18;;;;;;;4.43;2.40;;;16.80;99.90;;;;;;5042141;28;20188;-61
2023/07/16 05:05:44;;;;;;;4.30;2.03;;;16.80;99.90;;;;;;5035083;28;20780;-61
2023/07/16 05:08:09;;;;;;;3.10;2.20;;;16.80;99.90;;;;;;5032344;28;20167;-61
2023/07/16 05:10:35;;;;;;;10.50;2.43;;;16.80;99.90;;;;;;5036442;28;20680;-60
2023/07/16 05:13:03;;;;;;;2.00;1.80;;;16.80;99.90;;;;;;5035946;28;20186;-60
2023/07/16 05:15:29;;;;;;;2.13;1.80;;;16.80;99.90;;;;;;5039559;28;20217;-61
2023/07/16 05:17:54;;;;;;;2.57;1.83;;;16.70;99.90;;;;;;5042775;28;20934;-59
2023/07/16 05:20:20;;;;;;;4.87;2.20;;;16.70;99.90;;;;;;5041036;28;20329;-61
2023/07/16 05:22:45;;;;;;;2.67;1.90;;;16.80;99.90;;;;;;5040629;28;20210;-59
2023/07/16 05:25:11;;;;;;;2.33;2.10;;;16.80;99.90;;;;;;5041099;28;20210;-60
2023/07/16 05:27:37;;;;;;;7.80;2.00;;;16.70;99.90;;;;;;5043448;28;20188;-61
2023/07/16 05:30:03;;;;;;;5.63;1.80;;;16.70;99.90;;;;;;5034871;28;20262;-61
2023/07/16 05:32:29;;;;;;;6.80;2.50;;;16.70;99.90;;;;;;5045283;28;20428;-61
2023/07/16 05:34:54;;;;;;;4.00;2.10;;;16.70;99.90;;;;;;5038456;28;20461;-60
2023/07/16 05:37:20;;;;;;;2.20;2.00;;;16.60;99.90;;;;;;5039409;28;20201;-61
2023/07/16 05:39:46;;;;;;;2.00;1.90;;;16.60;99.90;;;;;;5039801;28;20206;-61
2023/07/16 05:42:11;;;;;;;8.00;1.93;;;16.60;99.90;;;;;;5033889;28;20378;-61
2023/07/16 05:44:37;;;;;;;4.47;2.10;;;16.70;99.90;;;;;;5037626;28;20918;-61
2023/07/16 05:47:02;;;;;;;10.13;2.77;;;16.70;99.90;;;;;;5042197;28;20182;-61
2023/07/16 05:49:28;;;;;;;3.23;2.20;;;16.70;99.90;;;;;;5039245;28;20258;-61
2023/07/16 05:51:55;;;;;;;2.80;2.20;;;16.70;99.90;;;;;;5038123;28;21431;-61
2023/07/16 05:54:21;;;;;;;4.80;2.10;;;16.70;99.90;;;;;;5034266;28;20207;-60
2023/07/16 05:56:47;;;;;;;2.30;2.10;;;16.70;99.90;;;;;;5041523;28;20461;-61
2023/07/16 05:59:12;;;;;;;3.20;2.40;;;16.70;99.90;;;;;;5039755;28;20468;-60
2023/07/16 06:01:38;;;;;;;5.57;2.00;;;16.60;99.90;;;;;;5034273;28;20191;-60
2023/07/16 06:04:04;;;;;;;3.20;2.03;;;16.60;99.90;;;;;;5042451;28;20171;-59
2023/07/16 06:06:31;;;;;;;6.70;2.23;;;16.60;99.90;;;;;;5036560;28;20179;-59
2023/07/16 06:08:57;;;;;;;6.60;2.20;;;16.60;99.90;;;;;;5039420;28;20260;-61
2023/07/16 06:11:22;;;;;;;5.63;2.33;;;16.70;99.90;;;;;;5039705;28;20527;-61
2023/07/16 06:13:48;;;;;;;2.93;2.10;;;16.70;99.90;;;;;;5040664;28;20184;-61
2023/07/16 06:16:14;;;;;;;5.30;2.27;;;16.80;99.90;;;;;;5041692;28;20195;-61
2023/07/16 06:18:40;;;;;;;6.00;1.70;;;16.80;99.90;;;;;;5043356;28;20723;-61
2023/07/16 06:21:05;;;;;;;2.10;1.90;;;16.80;99.90;;;;;;5037974;28;20183;-61
2023/07/16 06:23:31;;;;;;;3.73;2.40;;;16.80;99.90;;;;;;5033504;28;20184;-62
2023/07/16 06:25:56;;;;;;;7.07;2.13;;;16.80;99.90;;;;;;5038445;28;20207;-61
2023/07/16 06:28:22;;;;;;;4.00;2.13;;;16.80;99.90;;;;;;5042359;28;20187;-61
2023/07/16 06:30:49;;;;;;;2.87;2.10;;;16.80;99.90;;;;;;5038247;28;20183;-62
2023/07/16 06:33:15;;;;;;;5.63;2.10;;;16.80;99.90;;;;;;5036630;28;20277;-63
2023/07/16 06:35:43;;;;;;;2.13;1.93;;;16.90;99.90;;;;;;5043536;28;20469;-62
2023/07/16 06:38:09;;;;;;;4.27;2.60;;;16.90;99.90;;;;;;5040727;28;20195;-60
2023/07/16 06:40:34;;;;;;;2.53;2.07;;;17.00;99.90;;;;;;5042739;28;22364;-62
2023/07/16 06:43:00;;;;;;;3.67;1.93;;;17.00;99.90;;;;;;5037548;28;20171;-62
2023/07/16 06:45:25;;;;;;;8.47;2.10;;;17.10;99.90;;;;;;5043264;28;20695;-62
2023/07/16 06:47:52;;;;;;;4.30;2.20;;;17.20;99.90;;;;;;5044729;28;20225;-63
2023/07/16 06:50:18;;;;;;;3.77;2.60;;;17.30;99.90;;;;;;5038564;28;20805;-63
2023/07/16 06:52:43;;;;;;;5.20;2.17;;;17.40;99.90;;;;;;5042388;28;20298;-63
2023/07/16 06:55:09;;;;;;;3.00;2.30;;;17.60;99.90;;;;;;5040644;28;20210;-62
2023/07/16 06:57:35;;;;;;;5.90;2.50;;;17.80;99.90;;;;;;5043899;28;20187;-62
2023/07/16 07:00:00;;;;;;;2.63;1.97;;;17.90;99.90;;;;;;5040623;28;20275;-59
2023/07/16 07:02:26;;;;;;;3.80;1.97;;;17.90;99.90;;;;;;5044639;28;20183;-62
2023/07/16 07:04:52;;;;;;;3.40;2.23;;;17.80;99.90;;;;;;5042857;28;20218;-62
2023/07/16 07:07:17;;;;;;;2.97;1.93;;;17.80;99.90;;;;;;5039812;28;20209;-61
2023/07/16 07:09:46;;;;;;;2.87;2.27;;;17.80;99.90;;;;;;5036937;28;20176;-61
2023/07/16 07:12:12;;;;;;;4.17;2.30;;;17.80;99.90;;;;;;5042563;28;20183;-62
2023/07/16 07:14:38;;;;;;;5.13;2.57;;;17.90;99.90;;;;;;5039737;28;20449;-62
2023/07/16 07:17:03;;;;;;;6.30;2.00;;;17.90;99.90;;;;;;5032667;28;20183;-62
2023/07/16 07:19:29;;;;;;;2.70;1.93;;;17.90;99.90;;;;;;5031496;28;20179;-63
2023/07/16 07:21:55;;;;;;;6.43;1.93;;;17.90;99.90;;;;;;5045316;28;20214;-62
2023/07/16 07:24:20;;;;;;;3.60;1.80;;;17.90;99.90;;;;;;5040456;28;20211;-62
2023/07/16 07:26:46;;;;;;;2.33;1.80;;;18.10;99.90;;;;;;5038834;28;20183;-63
2023/07/16 07:29:11;;;;;;;6.70;2.53;;;18.20;99.90;;;;;;5044038;28;20185;-63
2023/07/16 07:31:37;;;;;;;4.17;2.30;;;18.30;99.90;;;;;;5036428;28;20187;-63
2023/07/16 07:34:02;;;;;;;5.50;2.13;;;18.40;99.90;;;;;;5036507;28;20215;-62
2023/07/16 07:36:29;;;;;;;4.30;1.77;;;18.50;99.90;;;;;;5033673;28;20184;-63
2023/07/16 07:38:54;;;;;;;3.43;2.23;;;18.60;99.90;;;;;;5029799;28;20194;-63
2023/07/16 07:41:20;;;;;;;5.37;2.10;;;18.70;99.90;;;;;;5031428;28;20434;-57
2023/07/16 07:43:45;;;;;;;12.13;2.33;;;18.80;99.90;;;;;;5023291;28;20184;-57
2023/07/16 07:46:11;;;;;;;5.10;2.30;;;18.90;99.90;;;;;;5033598;28;20280;-59
2023/07/16 07:48:37;;;;;;;3.13;2.17;;;19.00;99.90;;;;;;5030728;28;20183;-59
2023/07/16 07:51:03;;;;;;;4.63;2.10;;;19.20;99.90;;;;;;5034304;28;20612;-58
2023/07/16 07:53:28;;;;;;;3.13;2.10;;;19.20;99.90;;;;;;5032331;28;20491;-57
2023/07/16 07:55:54;;;;;;;4.60;2.10;;;19.20;99.90;;;;;;5031162;28;20231;-57
2023/07/16 07:58:20;;;;;;;2.90;2.20;;;19.10;99.90;;;;;;5027846;28;20666;-57
2023/07/16 08:00:45;;;;;;;3.33;1.80;;;19.00;99.90;;;;;;5027269;28;20430;-57
2023/07/16 08:03:11;;;;;;;3.80;2.27;;;19.00;99.90;;;;;;5034971;28;20179;-59
2023/07/16 08:05:37;;;;;;;5.63;2.23;;;19.00;99.90;;;;;;5030176;28;20203;-58
2023/07/16 08:08:02;;;;;;;6.67;2.93;;;19.00;99.90;;;;;;5032605;28;20211;-58
2023/07/16 08:10:28;;;;;;;4.40;2.23;;;19.00;99.90;;;;;;5024999;28;20221;-58
2023/07/16 08:12:53;;;;;;;4.40;2.00;;;19.10;99.90;;;;;;5031354;28;20171;-57
2023/07/16 08:15:19;;;;;;;4.27;2.00;;;19.10;99.90;;;;;;5027090;28;20211;-58
2023/07/16 08:17:45;;;;;;;6.00;2.30;;;19.10;99.90;;;;;;5031551;28;20693;-57
2023/07/16 08:20:11;;;;;;;2.67;1.87;;;19.10;99.90;;;;;;5022710;28;20314;-58
2023/07/16 08:22:38;;;;;;;3.60;1.90;;;19.10;99.90;;;;;;5024913;28;20191;-56
2023/07/16 08:25:04;;;;;;;6.50;2.27;;;19.00;99.90;;;;;;5028511;28;21002;-59
2023/07/16 08:27:30;;;;;;;3.70;2.00;;;19.10;99.90;;;;;;5030038;28;20810;-57
2023/07/16 08:29:56;;;;;;;3.40;1.93;;;19.10;99.90;;;;;;5028946;28;20465;-57
2023/07/16 08:32:22;;;;;;;4.40;2.10;;;19.20;99.90;;;;;;5020428;28;20991;-59
2023/07/16 08:34:48;;;;;;;6.23;2.73;;;19.30;99.90;;;;;;5028156;28;20254;-56
2023/07/16 08:37:14;;;;;;;4.33;2.00;;;19.50;99.90;;;;;;5030526;28;20433;-57
2023/07/16 08:39:40;;;;;;;4.70;2.17;;;19.50;99.90;;;;;;5024963;28;20191;-60
2023/07/16 08:42:06;;;;;;;9.20;2.63;;;19.60;99.90;;;;;;5023119;28;20981;-58
2023/07/16 08:44:32;;;;;;;4.27;1.93;;;19.60;99.90;;;;;;5028316;28;20219;-58
2023/07/16 08:46:58;;;;;;;5.63;2.57;;;19.50;99.90;;;;;;5035098;28;20984;-58
2023/07/16 08:49:29;;;;;;;5.00;2.47;;;19.40;99.90;;;;;;5031257;28;20445;-57
2023/07/16 08:51:56;;;;;;;2.93;2.00;;;19.40;99.90;;;;;;5029115;28;20425;-58
2023/07/16 08:54:22;;;;;;;4.20;2.20;;;19.50;99.90;;;;;;5024929;28;20457;-59
2023/07/16 08:56:48;;;;;;;3.70;2.10;;;19.50;99.90;;;;;;5032651;28;20453;-58
2023/07/16 08:59:18;;;;;;;4.40;2.70;;;19.40;99.90;;;;;;5029143;28;20442;-58
2023/07/16 09:01:44;;;;;;;3.80;2.03;;;19.50;99.90;;;;;;5025796;28;20443;-59
2023/07/16 09:04:10;;;;;;;1.93;1.77;;;19.60;99.90;;;;;;5027267;28;20450;-59
2023/07/16 09:06:35;;;;;;;3.70;2.47;;;19.70;99.90;;;;;;5028971;28;20438;-59
2023/07/16 09:09:01;;;;;;;7.80;2.27;;;19.70;99.90;;;;;;5026226;28;20188;-59
2023/07/16 09:11:27;;;;;;;3.30;2.10;;;19.70;99.40;;;;;;5021893;28;20174;-59
2023/07/16 09:13:52;;;;;;;3.70;2.30;;;19.70;99.90;;;;;;5034724;28;20175;-60
2023/07/16 09:16:20;;;;;;;3.43;2.23;;;19.80;99.90;;;;;;5044132;28;20203;-60
2023/07/16 09:18:46;;;;;;;2.80;2.30;;;19.80;99.90;;;;;;5037785;28;20206;-60
2023/07/16 09:21:12;;;;;;;4.20;2.23;;;19.80;99.90;;;;;;5030741;28;20500;-60
2023/07/16 09:23:37;;;;;;;8.03;2.50;;;19.90;99.90;;;;;;5026988;28;20245;-59
2023/07/16 09:26:03;;;;;;;3.20;1.80;;;19.90;99.90;;;;;;5019314;28;21213;-61
2023/07/16 09:28:32;;;;;;;5.30;2.07;;;19.90;99.90;;;;;;5036911;28;20187;-60
2023/07/16 09:31:07;;;;;;;3.30;2.40;;;20.00;99.90;;;;;;5044215;28;20440;-60
2023/07/16 09:33:33;;;;;;;3.20;2.20;;;20.00;99.90;;;;;;5042523;28;20417;-60
2023/07/16 09:35:59;;;;;;;2.70;2.20;;;20.10;99.90;;;;;;5040116;28;21012;-62
2023/07/16 09:38:28;;;;;;;4.53;2.03;;;20.20;99.90;;;;;;5041370;28;20445;-60
2023/07/16 09:40:55;;;;;;;5.50;2.50;;;20.20;99.90;;;;;;5041978;28;20437;-61
2023/07/16 09:43:21;;;;;;;6.93;2.30;;;20.20;99.90;;;;;;5040191;28;20444;-61
2023/07/16 09:45:47;;;;;;;8.20;2.37;;;20.20;99.90;;;;;;5039078;28;20519;-60
2023/07/16 09:48:14;;;;;;;7.20;2.53;;;20.30;99.90;;;;;;5036616;28;20441;-60
2023/07/16 09:50:47;;;;;;;2.30;1.90;;;20.40;99.90;;;;;;5042504;28;20546;-60
2023/07/16 09:53:14;;;;;;;3.83;2.10;;;20.60;99.90;;;;;;5044331;28;20936;-60
2023/07/16 09:55:40;;;;;;;2.50;2.13;;;20.60;98.40;;;;;;5034754;28;20954;-60
2023/07/16 09:58:11;;;;;;;2.43;1.90;;;20.60;97.80;;;;;;5045692;28;20421;-61
2023/07/16 10:00:39;;;;;;;5.00;2.20;;;20.60;97.60;;;;;;5041496;28;20179;-61
2023/07/16 10:03:07;;;;;;;5.83;2.43;;;20.60;97.00;;;;;;5051603;28;20428;-61
2023/07/16 10:05:37;;;;;;;2.27;2.07;;;20.60;98.80;;;;;;5038313;28;20465;-61
2023/07/16 10:08:03;;;;;;;6.47;2.67;;;20.70;99.90;;;;;;5043614;28;20421;-61
2023/07/16 10:10:44;;;;;;;7.00;2.50;;;20.90;99.90;;;;;;5041789;28;20417;-60
2023/07/16 10:13:12;;;;;;;4.03;2.33;;;21.00;99.90;;;;;;5043981;28;20433;-61
2023/07/16 10:15:39;;;;;;;3.90;2.10;;;21.10;99.80;;;;;;5041604;28;20457;-61
2023/07/16 10:18:05;;;;;;;4.10;2.00;;;21.20;99.90;;;;;;5045810;28;20438;-61
2023/07/16 10:20:42;;;;;;;5.93;2.27;;;21.10;95.70;;;;;;5044283;28;20491;-61
2023/07/16 10:23:15;;;;;;;4.20;2.10;;;21.10;98.00;;;;;;5045060;28;20191;-61
2023/07/16 10:25:57;;;;;;;3.53;2.10;;;21.00;99.90;;;;;;5042869;28;20559;-60
2023/07/16 10:28:23;;;;;;;3.87;2.57;;;21.10;99.90;;;;;;5043551;28;20440;-60
2023/07/16 10:30:50;;;;;;;4.33;2.20;;;21.30;99.90;;;;;;5042107;28;20426;-61
2023/07/16 10:33:15;;;;;;;3.10;2.30;;;21.30;99.90;;;;;;5047712;28;20184;-61
2023/07/16 10:35:42;;;;;;;1.93;1.70;;;21.40;99.90;;;;;;5046209;28;20531;-60
2023/07/16 10:38:08;;;;;;;4.20;2.37;;;21.60;99.40;;;;;;5046252;28;20270;-60
2023/07/16 10:40:43;;;;;;;2.27;1.83;;;21.70;96.00;;;;;;5045209;28;20541;-60
2023/07/16 10:43:09;;;;;;;5.97;2.40;;;21.90;90.30;;;;;;5045459;28;20187;-61
2023/07/16 10:45:35;;;;;;;2.40;2.07;;;21.90;93.80;;;;;;5043697;28;20476;-61
2023/07/16 10:48:00;;;;;;;3.63;2.70;;;22.00;96.80;;;;;;5039672;28;20433;-60
2023/07/16 10:50:26;;;;;;;3.47;2.33;;;22.30;97.40;;;;;;5040635;28;20175;-60
2023/07/16 10:52:55;;;;;;;2.90;1.90;;;22.50;87.10;;;;;;5045493;28;20643;-59
2023/07/16 10:55:22;;;;;;;3.87;2.37;;;22.70;85.80;;;;;;5047499;28;20199;-58
2023/07/16 10:57:49;;;;;;;7.60;2.20;;;23.00;90.20;;;;;;5048800;28;20486;-59
2023/07/16 11:00:15;;;;;;;2.17;1.97;;;23.30;68.60;;;;;;5043921;28;20413;-59
2023/07/16 11:02:43;;;;;;;3.77;2.47;;;23.40;71.10;;;;;;5038691;28;20422;-57
2023/07/16 11:05:15;;;;;;;6.63;2.20;;;23.30;66.80;;;;;;5036088;28;20461;-59
2023/07/16 11:07:45;;;;;;;3.67;2.20;;;23.10;66.20;;;;;;5043922;28;20417;-60
2023/07/16 11:10:11;;;;;;;3.20;2.30;;;22.90;67.40;;;;;;5049563;28;20467;-59
2023/07/16 11:12:36;;;;;;;7.17;2.37;;;22.80;70.20;;;;;;5042335;28;20422;-59
2023/07/16 11:15:02;;;;;;;5.33;2.00;;;22.80;70.10;;;;;;5049778;28;20825;-59
2023/07/16 11:17:28;;;;;;;2.10;1.90;;;22.70;65.90;;;;;;5046153;28;20797;-60
2023/07/16 11:19:55;;;;;;;3.03;2.17;;;22.70;71.30;;;;;;5044971;28;20434;-59
2023/07/16 11:22:27;;;;;;;7.67;2.30;;;22.80;71.20;;;;;;5041459;28;20191;-59
2023/07/16 11:24:54;;;;;;;5.90;2.63;;;22.80;70.30;;;;;;5049607;28;20618;-60
2023/07/16 11:27:26;;;;;;;3.47;2.30;;;22.70;71.80;;;;;;5042676;28;20426;-60
2023/07/16 11:29:52;;;;;;;2.53;2.30;;;22.80;73.30;;;;;;5038960;28;20441;-60
2023/07/16 11:32:31;;;;;;;5.23;2.63;;;23.00;77.40;;;;;;5046293;28;20502;-60
2023/07/16 11:34:58;;;;;;;3.73;2.43;;;23.30;77.30;;;;;;5041059;28;20480;-59
2023/07/16 11:37:28;;;;;;;2.80;2.30;;;23.30;68.10;;;;;;5041539;28;20446;-61
2023/07/16 11:39:58;;;;;;;4.13;2.10;;;23.30;65.60;;;;;;5040948;28;20434;-59
2023/07/16 11:42:35;;;;;;;5.00;2.50;;;23.30;69.70;;;;;;5041251;28;20514;-59
2023/07/16 11:45:02;;;;;;;2.63;2.23;;;23.40;72.30;;;;;;5042710;28;20475;-60
2023/07/16 11:47:28;;;;;;;4.60;2.73;;;23.30;69.70;;;;;;5044629;28;20560;-59
2023/07/16 11:49:54;;;;;;;3.70;2.43;;;23.40;74.90;;;;;;5040659;28;20525;-59
2023/07/16 11:52:22;;;;;;;3.90;2.27;;;23.30;70.70;;;;;;5046854;28;20217;-61
2023/07/16 11:54:48;;;;;;;2.47;2.03;;;23.60;69.60;;;;;;5039316;28;20671;-60
2023/07/16 11:57:14;;;;;;;2.97;2.03;;;23.70;68.10;;;;;;5040936;28;20417;-61
2023/07/16 11:59:40;;;;;;;3.60;2.40;;;23.80;66.40;;;;;;5045697;28;20427;-60
2023/07/16 12:02:05;;;;;;;7.63;2.10;;;24.00;70.70;;;;;;5045029;28;20179;-60
2023/07/16 12:04:31;;;;;;;4.43;2.47;;;24.10;71.80;;;;;;5037398;28;20203;-60
2023/07/16 12:06:57;;;;;;;2.73;2.40;;;24.30;67.00;;;;;;5045854;28;20188;-60
2023/07/16 12:09:22;;;;;;;8.67;3.13;;;24.20;64.50;;;;;;5042777;28;20183;-60
2023/07/16 12:11:48;;;;;;;4.77;3.10;;;24.20;66.50;;;;;;5043455;28;20175;-60
2023/07/16 12:14:13;;;;;;;5.17;2.47;;;24.20;71.30;;;;;;5038759;28;20186;-60
2023/07/16 12:16:39;;;;;;;2.63;2.43;;;24.40;68.60;;;;;;5047377;28;20187;-61
2023/07/16 12:19:07;;;;;;;7.13;3.00;;;24.50;68.50;;;;;;5048558;28;20179;-61
2023/07/16 12:21:33;;;;;;;3.67;2.70;;;24.60;64.00;;;;;;5041931;28;20780;-60
2023/07/16 12:23:58;;;;;;;2.20;1.93;;;24.50;63.00;;;;;;5043461;28;20500;-60
2023/07/16 12:26:24;;;;;;;3.60;2.43;;;24.40;63.50;;;;;;5041293;28;20210;-60
2023/07/16 12:28:50;;;;;;;6.30;2.60;;;24.30;64.50;;;;;;5043756;28;20198;-60
2023/07/16 12:31:16;;;;;;;2.83;2.50;;;24.10;64.30;;;;;;5045048;28;20217;-60
2023/07/16 12:33:42;;;;;;;4.60;2.90;;;24.00;65.50;;;;;;5043371;28;20199;-59
2023/07/16 12:36:08;;;;;;;2.33;2.13;;;23.90;67.80;;;;;;5039644;28;20503;-59
2023/07/16 12:38:34;;;;;;;3.70;2.50;;;23.90;69.70;;;;;;5038718;28;20473;-58
2023/07/16 12:40:59;;;;;;;3.10;2.57;;;23.90;68.60;;;;;;5043047;28;20195;-60